Time;durP1;ratioP1;P1;durP2;ratioP2;P2;SDS_P1;SDS_P2;PMS_P1;PMS_P2;Temp;Humidity;BMP_temperature;BMP_pressure;BME280_temperature;BME280_humidity;BME280_pressure;Samples;Min_cycle;Max_cycle;Signal;HPM_P1;HPM_P2
2021/07/07 00:00:11;;;;;;;7.53;3.30;;;;;;;;;;5046290;28;20197;-72
2021/07/07 00:02:36;;;;;;;9.45;4.00;;;;;;;;;;5034591;28;20192;-70
2021/07/07 00:05:04;;;;;;;8.85;3.85;;;;;;;;;;5046984;28;20546;-71
2021/07/07 00:07:29;;;;;;;9.52;5.00;;;;;;;;;;5036960;28;20677;-71
2021/07/07 00:09:54;;;;;;;12.15;4.82;;;;;;;;;;5039815;28;20193;-72
2021/07/07 00:12:20;;;;;;;11.90;4.30;;;;;;;;;;5041802;28;20209;-71
2021/07/07 00:14:45;;;;;;;8.60;3.90;;;;;;;;;;5039925;28;20177;-71
2021/07/07 00:17:11;;;;;;;9.43;3.58;;;;;;;;;;5042611;28;20277;-72
2021/07/07 00:19:36;;;;;;;6.88;4.15;;;;;;;;;;5038636;28;20663;-72
2021/07/07 00:22:02;;;;;;;6.85;4.05;;;;;;;;;;5045221;28;20307;-72
2021/07/07 00:24:28;;;;;;;8.05;4.45;;;;;;;;;;5043528;28;20276;-70
2021/07/07 00:26:53;;;;;;;11.23;4.20;;;;;;;;;;5040620;28;20234;-70
2021/07/07 00:29:19;;;;;;;11.13;5.10;;;;;;;;;;5034100;28;20205;-70
2021/07/07 00:31:44;;;;;;;10.27;4.93;;;;;;;;;;5043815;28;20185;-71
2021/07/07 00:34:09;;;;;;;6.07;4.60;;;;;;;;;;5037169;28;21008;-71
2021/07/07 00:36:35;;;;;;;7.68;4.35;;;;;;;;;;5041597;28;20521;-70
2021/07/07 00:39:00;;;;;;;9.55;3.70;;;;;;;;;;5044848;28;20190;-70
2021/07/07 00:41:25;;;;;;;5.97;4.13;;;;;;;;;;5032302;28;20185;-70
2021/07/07 00:43:51;;;;;;;7.07;3.45;;;;;;;;;;5045827;28;20634;-70
2021/07/07 00:46:16;;;;;;;8.98;4.28;;;;;;;;;;5031424;28;20676;-70
2021/07/07 00:48:43;;;;;;;7.75;3.60;;;;;;;;;;5030332;28;20222;-70
2021/07/07 00:51:11;;;;;;;8.52;4.03;;;;;;;;;;5013887;28;20206;-71
2021/07/07 00:53:39;;;;;;;7.07;3.08;;;;;;;;;;5016174;28;20586;-70
2021/07/07 00:56:05;;;;;;;3.90;2.95;;;;;;;;;;5009912;28;20182;-72
2021/07/07 00:58:32;;;;;;;6.43;3.33;;;;;;;;;;5003429;28;20195;-70
2021/07/07 01:00:58;;;;;;;9.43;3.45;;;;;;;;;;5014697;28;20256;-70
2021/07/07 01:03:23;;;;;;;6.82;3.45;;;;;;;;;;5023753;28;20193;-70
2021/07/07 01:05:49;;;;;;;7.10;3.40;;;;;;;;;;5014638;28;20193;-70
2021/07/07 01:08:14;;;;;;;5.57;3.38;;;;;;;;;;5022825;28;20209;-70
2021/07/07 01:10:39;;;;;;;7.20;3.22;;;;;;;;;;5012596;28;20297;-70
2021/07/07 01:13:05;;;;;;;9.88;3.25;;;;;;;;;;5017486;28;20661;-70
2021/07/07 01:15:32;;;;;;;7.22;3.33;;;;;;;;;;5021790;28;20178;-70
2021/07/07 01:17:57;;;;;;;5.40;3.20;;;;;;;;;;5014161;28;20273;-71
2021/07/07 01:20:25;;;;;;;7.10;3.65;;;;;;;;;;5020830;28;20281;-69
2021/07/07 01:22:50;;;;;;;6.13;3.25;;;;;;;;;;5008586;28;20178;-69
2021/07/07 01:25:18;;;;;;;5.70;3.30;;;;;;;;;;5018386;28;20197;-70
2021/07/07 01:27:44;;;;;;;7.93;3.72;;;;;;;;;;5013310;28;20186;-69
2021/07/07 01:30:18;;;;;;;7.80;3.42;;;;;;;;;;5022264;28;20178;-69
2021/07/07 01:32:45;;;;;;;7.95;3.47;;;;;;;;;;5013717;28;20277;-69
2021/07/07 01:35:12;;;;;;;9.27;3.50;;;;;;;;;;5023739;28;20625;-69
2021/07/07 01:37:38;;;;;;;7.03;3.50;;;;;;;;;;5010481;28;20551;-69
2021/07/07 01:40:05;;;;;;;8.77;3.20;;;;;;;;;;5017245;28;20934;-69
2021/07/07 01:42:30;;;;;;;9.65;4.40;;;;;;;;;;5007874;28;20178;-69
2021/07/07 01:44:56;;;;;;;7.05;4.22;;;;;;;;;;5020569;28;20212;-69
2021/07/07 01:47:21;;;;;;;7.57;3.58;;;;;;;;;;5019755;28;20230;-69
2021/07/07 01:49:46;;;;;;;7.53;3.67;;;;;;;;;;5011237;28;20278;-70
2021/07/07 01:52:12;;;;;;;8.90;4.15;;;;;;;;;;5023795;28;20210;-69
2021/07/07 01:54:37;;;;;;;6.05;4.00;;;;;;;;;;5012228;28;20252;-69
2021/07/07 01:57:03;;;;;;;4.03;3.40;;;;;;;;;;5014718;28;20237;-69
2021/07/07 01:59:28;;;;;;;10.07;4.20;;;;;;;;;;5014772;28;20205;-69
2021/07/07 02:01:53;;;;;;;13.70;4.30;;;;;;;;;;5016553;28;20202;-69
2021/07/07 02:04:21;;;;;;;7.07;4.32;;;;;;;;;;5009434;28;20226;-69
2021/07/07 02:06:48;;;;;;;9.25;5.10;;;;;;;;;;5022171;28;20269;-69
2021/07/07 02:09:13;;;;;;;7.35;5.22;;;;;;;;;;5009117;28;20201;-69
2021/07/07 02:11:39;;;;;;;9.82;5.40;;;;;;;;;;5016743;28;20198;-69
2021/07/07 02:14:04;;;;;;;8.75;4.75;;;;;;;;;;5012847;28;20638;-69
2021/07/07 02:16:29;;;;;;;6.88;4.80;;;;;;;;;;5018239;28;20669;-69
2021/07/07 02:18:55;;;;;;;10.20;5.00;;;;;;;;;;5020787;28;20196;-69
2021/07/07 02:21:20;;;;;;;8.38;5.00;;;;;;;;;;5011544;28;20182;-69
2021/07/07 02:23:45;;;;;;;8.68;4.30;;;;;;;;;;5018935;28;20205;-69
2021/07/07 02:26:11;;;;;;;7.40;4.30;;;;;;;;;;5007820;28;20236;-69
2021/07/07 02:28:36;;;;;;;8.20;4.28;;;;;;;;;;5016011;28;20264;-69
2021/07/07 02:31:01;;;;;;;8.00;4.50;;;;;;;;;;5012355;28;20227;-69
2021/07/07 02:33:27;;;;;;;8.75;5.38;;;;;;;;;;5018826;28;20185;-69
2021/07/07 02:35:53;;;;;;;8.30;4.95;;;;;;;;;;5009743;28;20183;-69
2021/07/07 02:38:23;;;;;;;6.47;4.32;;;;;;;;;;5015944;28;20183;-69
2021/07/07 02:40:50;;;;;;;11.57;4.43;;;;;;;;;;5006983;28;20194;-69
2021/07/07 02:43:16;;;;;;;8.52;4.55;;;;;;;;;;5024010;28;20273;-69
2021/07/07 02:45:42;;;;;;;10.18;4.70;;;;;;;;;;5011843;28;20320;-69
2021/07/07 02:48:09;;;;;;;8.40;4.32;;;;;;;;;;5024210;28;20241;-69
2021/07/07 02:50:36;;;;;;;11.32;5.13;;;;;;;;;;5013744;28;20190;-69
2021/07/07 02:53:02;;;;;;;8.38;4.70;;;;;;;;;;5026125;28;20543;-69
2021/07/07 02:55:27;;;;;;;9.63;5.20;;;;;;;;;;5021798;28;20189;-69
2021/07/07 02:57:56;;;;;;;6.75;4.40;;;;;;;;;;5017718;28;20193;-68
2021/07/07 03:00:23;;;;;;;8.23;4.50;;;;;;;;;;5025264;28;20202;-69
2021/07/07 03:02:48;;;;;;;10.82;5.15;;;;;;;;;;5014038;28;20552;-69
2021/07/07 03:05:13;;;;;;;7.60;4.78;;;;;;;;;;5023883;28;20193;-69
2021/07/07 03:07:39;;;;;;;11.73;4.82;;;;;;;;;;5015927;28;20712;-69
2021/07/07 03:10:06;;;;;;;8.63;5.07;;;;;;;;;;5022021;28;21280;-69
2021/07/07 03:12:31;;;;;;;7.07;4.65;;;;;;;;;;5018940;28;20217;-69
2021/07/07 03:14:57;;;;;;;10.02;5.45;;;;;;;;;;5025026;28;20269;-68
2021/07/07 03:17:22;;;;;;;7.40;4.95;;;;;;;;;;5010476;28;20264;-69
2021/07/07 03:19:47;;;;;;;7.05;5.35;;;;;;;;;;5023041;28;20217;-69
2021/07/07 03:22:12;;;;;;;9.52;5.65;;;;;;;;;;5019849;28;20202;-68
2021/07/07 03:24:38;;;;;;;11.32;5.72;;;;;;;;;;5022339;28;20691;-69
2021/07/07 03:27:03;;;;;;;13.50;5.95;;;;;;;;;;5025006;28;20177;-69
2021/07/07 03:29:28;;;;;;;12.70;6.07;;;;;;;;;;5014762;28;20579;-69
2021/07/07 03:31:54;;;;;;;12.70;5.75;;;;;;;;;;5027479;28;20524;-69
2021/07/07 03:34:19;;;;;;;9.77;5.60;;;;;;;;;;5014920;28;20190;-69
2021/07/07 03:36:44;;;;;;;13.60;5.50;;;;;;;;;;5024197;28;20178;-69
2021/07/07 03:39:10;;;;;;;7.65;5.72;;;;;;;;;;5015020;28;20315;-69
2021/07/07 03:41:35;;;;;;;8.43;5.63;;;;;;;;;;5025999;28;20177;-69
2021/07/07 03:44:01;;;;;;;6.53;5.78;;;;;;;;;;5012239;28;20186;-69
2021/07/07 03:46:26;;;;;;;10.90;5.75;;;;;;;;;;5025679;28;20656;-69
2021/07/07 03:48:51;;;;;;;6.97;5.40;;;;;;;;;;5013195;28;22556;-69
2021/07/07 03:51:16;;;;;;;9.25;5.22;;;;;;;;;;5024485;28;20336;-69
2021/07/07 03:53:42;;;;;;;8.52;5.55;;;;;;;;;;5020072;28;20269;-70
2021/07/07 03:56:07;;;;;;;7.72;5.22;;;;;;;;;;5016691;28;20280;-69
2021/07/07 03:58:32;;;;;;;7.07;5.22;;;;;;;;;;5024355;28;20202;-71
2021/07/07 04:00:58;;;;;;;9.95;4.95;;;;;;;;;;4993181;28;20263;-70
2021/07/07 04:03:23;;;;;;;8.80;4.50;;;;;;;;;;5020015;28;20205;-70
2021/07/07 04:05:48;;;;;;;10.95;4.97;;;;;;;;;;5015474;28;20182;-70
2021/07/07 04:08:14;;;;;;;8.10;4.18;;;;;;;;;;5020734;28;20190;-70
2021/07/07 04:10:39;;;;;;;6.47;3.97;;;;;;;;;;5013980;28;20193;-70
2021/07/07 04:13:04;;;;;;;6.57;3.90;;;;;;;;;;5019250;28;20194;-70
2021/07/07 04:15:30;;;;;;;8.68;3.72;;;;;;;;;;5009583;28;20190;-70
2021/07/07 04:17:55;;;;;;;6.43;4.03;;;;;;;;;;5020583;28;20213;-70
2021/07/07 04:20:20;;;;;;;6.80;3.50;;;;;;;;;;5014579;28;20190;-70
2021/07/07 04:22:48;;;;;;;6.95;3.40;;;;;;;;;;5015093;28;20194;-70
2021/07/07 04:25:14;;;;;;;4.43;3.00;;;;;;;;;;5022574;28;20251;-71
2021/07/07 04:27:40;;;;;;;8.07;3.28;;;;;;;;;;4993767;28;20186;-71
2021/07/07 04:30:11;;;;;;;6.85;3.00;;;;;;;;;;5024831;28;20492;-71
2021/07/07 04:32:37;;;;;;;8.15;3.20;;;;;;;;;;5010722;28;20256;-71
2021/07/07 04:35:03;;;;;;;6.10;3.38;;;;;;;;;;5026700;28;20217;-71
2021/07/07 04:37:29;;;;;;;6.63;2.70;;;;;;;;;;5010780;28;20195;-70
2021/07/07 04:39:55;;;;;;;6.90;3.10;;;;;;;;;;5027130;28;20582;-70
2021/07/07 04:42:21;;;;;;;7.30;2.60;;;;;;;;;;5011481;28;20190;-71
2021/07/07 04:44:46;;;;;;;6.82;2.65;;;;;;;;;;5023641;28;20248;-71
2021/07/07 04:47:11;;;;;;;5.15;2.25;;;;;;;;;;4993976;28;20306;-70
2021/07/07 04:49:37;;;;;;;10.10;3.15;;;;;;;;;;5026645;28;20277;-70
2021/07/07 04:52:04;;;;;;;9.60;2.78;;;;;;;;;;5022325;28;20297;-71
2021/07/07 04:54:31;;;;;;;4.40;2.83;;;;;;;;;;5013443;28;20193;-71
2021/07/07 04:56:57;;;;;;;5.05;2.63;;;;;;;;;;5023826;28;20212;-70
2021/07/07 04:59:22;;;;;;;9.70;3.30;;;;;;;;;;5011215;28;20231;-71
2021/07/07 05:01:47;;;;;;;7.75;2.90;;;;;;;;;;5017335;28;20271;-71
2021/07/07 05:04:13;;;;;;;6.00;2.60;;;;;;;;;;5012384;28;20198;-71
2021/07/07 05:06:38;;;;;;;6.50;2.80;;;;;;;;;;5020778;28;20194;-71
2021/07/07 05:09:03;;;;;;;4.68;2.30;;;;;;;;;;5014003;28;20209;-71
2021/07/07 05:11:29;;;;;;;7.07;2.80;;;;;;;;;;5018889;28;20225;-70
2021/07/07 05:13:54;;;;;;;6.55;2.63;;;;;;;;;;4994124;28;20216;-70
2021/07/07 05:16:20;;;;;;;4.88;2.53;;;;;;;;;;5020525;28;20240;-70
2021/07/07 05:18:46;;;;;;;9.77;2.75;;;;;;;;;;5016269;28;20278;-71
2021/07/07 05:21:12;;;;;;;5.45;2.90;;;;;;;;;;5020571;28;20589;-71
2021/07/07 05:23:38;;;;;;;7.97;2.90;;;;;;;;;;5022720;28;20685;-71
2021/07/07 05:26:04;;;;;;;7.75;2.80;;;;;;;;;;5012122;28;20213;-71
2021/07/07 05:28:30;;;;;;;9.18;3.03;;;;;;;;;;5021085;28;20666;-71
2021/07/07 05:31:03;;;;;;;11.38;2.83;;;;;;;;;;5014959;28;20229;-71
2021/07/07 05:33:33;;;;;;;7.57;3.00;;;;;;;;;;5017995;28;20205;-71
2021/07/07 05:35:59;;;;;;;9.98;3.03;;;;;;;;;;5013779;28;20263;-72
2021/07/07 05:38:24;;;;;;;6.53;3.38;;;;;;;;;;5022995;28;20186;-71
2021/07/07 05:40:49;;;;;;;8.23;2.78;;;;;;;;;;5013552;28;20236;-71
2021/07/07 05:43:15;;;;;;;6.10;2.75;;;;;;;;;;5021181;28;20213;-71
2021/07/07 05:45:40;;;;;;;7.60;2.80;;;;;;;;;;5012571;28;20204;-71
2021/07/07 05:48:06;;;;;;;8.07;2.88;;;;;;;;;;5020344;28;20230;-71
2021/07/07 05:50:31;;;;;;;7.45;2.67;;;;;;;;;;5010691;28;20186;-70
2021/07/07 05:52:57;;;;;;;9.55;3.15;;;;;;;;;;5021686;28;20558;-71
2021/07/07 05:55:22;;;;;;;6.55;3.33;;;;;;;;;;5014259;28;20517;-72
2021/07/07 05:57:48;;;;;;;7.95;3.17;;;;;;;;;;5018103;28;20217;-71
2021/07/07 06:00:19;;;;;;;5.68;2.45;;;;;;;;;;5018335;28;20218;-71
2021/07/07 06:02:47;;;;;;;11.02;3.53;;;;;;;;;;5011346;28;20190;-73
2021/07/07 06:05:13;;;;;;;7.15;3.03;;;;;;;;;;5021626;28;20186;-70
2021/07/07 06:07:39;;;;;;;11.95;3.80;;;;;;;;;;5005039;28;20186;-73
2021/07/07 06:10:06;;;;;;;11.68;3.03;;;;;;;;;;5020386;28;20196;-72
2021/07/07 06:12:32;;;;;;;10.90;3.38;;;;;;;;;;5010186;28;20206;-71
2021/07/07 06:15:13;;;;;;;12.38;3.80;;;;;;;;;;4785843;28;10000417;-70
2021/07/07 06:17:38;;;;;;;6.43;2.75;;;;;;;;;;4989164;28;20416;-71
2021/07/07 06:20:06;;;;;;;9.82;2.53;;;;;;;;;;5018321;28;20512;-73
2021/07/07 06:22:31;;;;;;;12.70;3.03;;;;;;;;;;5008899;28;20202;-70
2021/07/07 06:24:57;;;;;;;9.13;2.92;;;;;;;;;;5018610;28;20651;-72
2021/07/07 06:27:22;;;;;;;8.10;3.13;;;;;;;;;;5006561;28;20539;-73
2021/07/07 06:29:47;;;;;;;9.40;3.47;;;;;;;;;;5016280;28;20737;-71
2021/07/07 06:32:14;;;;;;;7.03;3.60;;;;;;;;;;5019705;28;20228;-70
2021/07/07 06:34:39;;;;;;;9.25;3.72;;;;;;;;;;5012604;28;20269;-73
2021/07/07 06:37:05;;;;;;;9.32;2.92;;;;;;;;;;5020591;28;20613;-71
2021/07/07 06:39:30;;;;;;;9.50;3.50;;;;;;;;;;5009900;28;20182;-71
2021/07/07 06:41:55;;;;;;;9.43;3.42;;;;;;;;;;5017349;28;20636;-74
2021/07/07 06:44:21;;;;;;;8.32;3.50;;;;;;;;;;4997409;28;20186;-74
2021/07/07 06:46:46;;;;;;;8.95;3.58;;;;;;;;;;5020489;28;20193;-73
2021/07/07 06:49:11;;;;;;;8.40;3.50;;;;;;;;;;5007596;28;20771;-72
2021/07/07 06:51:37;;;;;;;12.25;3.67;;;;;;;;;;5014964;28;20598;-71
2021/07/07 06:54:02;;;;;;;13.80;3.58;;;;;;;;;;5011627;28;20240;-73
2021/07/07 06:56:28;;;;;;;9.77;3.20;;;;;;;;;;5018600;28;20194;-73
2021/07/07 06:58:53;;;;;;;12.77;3.60;;;;;;;;;;5012346;28;20293;-72
2021/07/07 07:01:18;;;;;;;8.73;3.15;;;;;;;;;;5015352;28;20213;-73
2021/07/07 07:03:44;;;;;;;9.48;3.42;;;;;;;;;;5007956;28;20490;-71
2021/07/07 07:06:09;;;;;;;13.55;3.72;;;;;;;;;;4993253;28;20186;-70
2021/07/07 07:08:35;;;;;;;7.95;3.40;;;;;;;;;;5024223;28;20217;-73
2021/07/07 07:11:00;;;;;;;9.43;3.67;;;;;;;;;;5009506;28;20182;-71
2021/07/07 07:13:26;;;;;;;8.23;3.30;;;;;;;;;;5023744;28;20186;-72
2021/07/07 07:15:51;;;;;;;8.68;3.30;;;;;;;;;;5010455;28;20276;-71
2021/07/07 07:18:17;;;;;;;14.30;3.88;;;;;;;;;;5022334;28;20214;-72
2021/07/07 07:20:43;;;;;;;10.48;3.97;;;;;;;;;;5009363;28;20758;-71
2021/07/07 07:23:09;;;;;;;8.90;3.22;;;;;;;;;;5022570;28;20174;-74
2021/07/07 07:25:35;;;;;;;10.07;3.60;;;;;;;;;;5008958;28;20724;-72
2021/07/07 07:28:00;;;;;;;10.73;3.67;;;;;;;;;;5022618;28;20274;-69
2021/07/07 07:30:29;;;;;;;12.27;3.53;;;;;;;;;;5008153;28;20216;-72
2021/07/07 07:32:54;;;;;;;8.95;3.30;;;;;;;;;;5022248;28;20614;-73
2021/07/07 07:35:20;;;;;;;12.80;3.67;;;;;;;;;;5019530;28;20218;-71
2021/07/07 07:37:51;;;;;;;7.53;3.70;;;;;;;;;;5010606;28;20261;-72
2021/07/07 07:40:27;;;;;;;6.90;3.28;;;;;;;;;;5019938;28;20671;-73
2021/07/07 07:42:53;;;;;;;11.63;3.20;;;;;;;;;;5016025;28;20193;-74
2021/07/07 07:45:19;;;;;;;10.38;3.50;;;;;;;;;;5021065;28;20194;-72
2021/07/07 07:47:45;;;;;;;11.48;3.60;;;;;;;;;;5015952;28;20276;-72
2021/07/07 07:50:13;;;;;;;10.15;3.50;;;;;;;;;;5045469;28;20661;-72
2021/07/07 07:52:40;;;;;;;16.25;3.70;;;;;;;;;;5019599;28;20202;-72
2021/07/07 07:55:06;;;;;;;7.97;3.08;;;;;;;;;;5042413;28;20656;-74
2021/07/07 07:57:36;;;;;;;9.68;2.75;;;;;;;;;;5035251;28;20241;-72
2021/07/07 08:00:05;;;;;;;8.65;3.45;;;;;;;;;;5044320;28;20256;-72
2021/07/07 08:02:30;;;;;;;7.03;2.83;;;;;;;;;;5040892;28;20186;-74
2021/07/07 08:04:55;;;;;;;11.15;3.53;;;;;;;;;;5030532;28;20616;-72
2021/07/07 08:07:21;;;;;;;15.13;4.03;;;;;;;;;;5032421;28;20189;-71
2021/07/07 08:09:47;;;;;;;11.90;3.10;;;;;;;;;;5046265;28;20197;-71
2021/07/07 08:12:12;;;;;;;8.63;3.40;;;;;;;;;;5045025;28;20206;-71
2021/07/07 08:14:37;;;;;;;12.05;3.55;;;;;;;;;;5037832;28;20637;-72
2021/07/07 08:17:03;;;;;;;10.15;3.25;;;;;;;;;;5029446;28;20652;-73
2021/07/07 08:19:28;;;;;;;11.75;3.92;;;;;;;;;;5037842;28;20657;-73
2021/07/07 08:21:54;;;;;;;14.10;3.30;;;;;;;;;;5050565;28;20181;-74
2021/07/07 08:24:19;;;;;;;13.13;3.45;;;;;;;;;;5035527;28;20189;-73
2021/07/07 08:26:44;;;;;;;10.65;3.75;;;;;;;;;;5044416;28;20194;-71
2021/07/07 08:29:10;;;;;;;6.93;2.55;;;;;;;;;;5033942;28;20193;-71
2021/07/07 08:31:35;;;;;;;13.70;3.50;;;;;;;;;;5047076;28;20216;-73
2021/07/07 08:34:00;;;;;;;10.38;3.10;;;;;;;;;;5034922;28;20194;-74
2021/07/07 08:36:26;;;;;;;7.28;2.72;;;;;;;;;;5041313;28;20188;-71
2021/07/07 08:38:53;;;;;;;9.18;3.47;;;;;;;;;;5033164;28;20249;-72
2021/07/07 08:41:20;;;;;;;12.38;3.15;;;;;;;;;;5034821;28;20656;-73
2021/07/07 08:43:45;;;;;;;12.95;3.22;;;;;;;;;;5040923;28;20182;-71
2021/07/07 08:46:10;;;;;;;13.60;3.17;;;;;;;;;;5038015;28;20197;-74
2021/07/07 08:48:36;;;;;;;9.35;3.20;;;;;;;;;;5025432;28;20240;-72
2021/07/07 08:51:03;;;;;;;8.80;2.55;;;;;;;;;;5007718;28;20534;-73
2021/07/07 08:53:31;;;;;;;11.75;3.20;;;;;;;;;;5023318;28;20280;-72
2021/07/07 08:55:57;;;;;;;9.15;3.22;;;;;;;;;;5013114;28;20266;-75
2021/07/07 08:58:23;;;;;;;10.18;2.75;;;;;;;;;;5018389;28;20584;-73
2021/07/07 09:00:50;;;;;;;11.18;3.60;;;;;;;;;;5015689;28;20216;-72
2021/07/07 09:03:17;;;;;;;5.57;2.42;;;;;;;;;;5017497;28;20269;-70
2021/07/07 09:05:58;;;;;;;10.80;2.65;;;;;;;;;;5009904;28;20228;-72
2021/07/07 09:08:35;;;;;;;9.73;2.40;;;;;;;;;;5019703;28;20195;-73
2021/07/07 09:11:21;;;;;;;11.65;2.75;;;;;;;;;;5015235;28;20191;-72
2021/07/07 09:14:06;;;;;;;10.88;3.08;;;;;;;;;;5023525;28;20255;-74
2021/07/07 09:16:44;;;;;;;14.05;3.22;;;;;;;;;;4995029;28;20251;-71
2021/07/07 09:19:20;;;;;;;10.50;2.60;;;;;;;;;;5024847;28;20182;-71
2021/07/07 09:21:51;;;;;;;6.88;2.70;;;;;;;;;;5012895;28;20195;-72
2021/07/07 09:24:24;;;;;;;8.25;2.60;;;;;;;;;;5004435;28;20178;-74
2021/07/07 09:27:14;;;;;;;6.28;2.40;;;;;;;;;;5011411;28;20189;-72
2021/07/07 09:29:42;;;;;;;9.07;2.80;;;;;;;;;;5020506;28;20190;-72
2021/07/07 09:32:16;;;;;;;9.77;2.50;;;;;;;;;;5013147;28;20211;-73
2021/07/07 09:34:44;;;;;;;14.18;2.20;;;;;;;;;;5022075;28;20689;-71
2021/07/07 09:37:21;;;;;;;6.18;2.38;;;;;;;;;;5009886;28;20583;-71
2021/07/07 09:39:47;;;;;;;12.05;2.50;;;;;;;;;;5022041;28;20262;-72
2021/07/07 09:42:12;;;;;;;10.60;2.60;;;;;;;;;;5008721;28;20738;-72
2021/07/07 09:44:37;;;;;;;12.63;2.08;;;;;;;;;;5022198;28;20183;-73
2021/07/07 09:47:04;;;;;;;8.05;2.17;;;;;;;;;;4993158;28;20189;-71
2021/07/07 09:49:33;;;;;;;11.23;2.63;;;;;;;;;;5016754;28;20190;-75
2021/07/07 09:52:00;;;;;;;7.28;2.30;;;;;;;;;;5016739;28;20211;-73
2021/07/07 09:54:25;;;;;;;7.55;2.35;;;;;;;;;;4989304;28;20213;-71
2021/07/07 09:56:51;;;;;;;6.60;2.13;;;;;;;;;;5016509;28;20609;-76
2021/07/07 09:59:17;;;;;;;9.15;2.35;;;;;;;;;;5008390;28;20466;-72
2021/07/07 10:01:46;;;;;;;11.88;2.28;;;;;;;;;;5020527;28;20174;-74
2021/07/07 10:04:14;;;;;;;4.95;1.88;;;;;;;;;;5010988;28;20201;-70
2021/07/07 10:06:40;;;;;;;9.07;1.92;;;;;;;;;;5018435;28;20174;-70
2021/07/07 10:09:05;;;;;;;6.93;1.95;;;;;;;;;;5010421;28;20190;-76
2021/07/07 10:11:32;;;;;;;8.48;2.15;;;;;;;;;;5007448;28;20276;-72
2021/07/07 10:13:58;;;;;;;12.32;2.22;;;;;;;;;;5013193;28;20214;-70
2021/07/07 10:16:25;;;;;;;7.07;2.15;;;;;;;;;;5019324;28;20225;-74
2021/07/07 10:18:50;;;;;;;7.05;1.80;;;;;;;;;;5010376;28;20244;-73
2021/07/07 10:21:16;;;;;;;7.45;2.10;;;;;;;;;;5002062;28;20662;-73
2021/07/07 10:23:43;;;;;;;8.02;2.10;;;;;;;;;;5023446;28;20193;-70
2021/07/07 10:26:10;;;;;;;4.63;1.90;;;;;;;;;;5015460;28;20178;-70
2021/07/07 10:28:36;;;;;;;7.47;1.90;;;;;;;;;;5006210;28;20186;-76
2021/07/07 10:31:03;;;;;;;7.97;1.92;;;;;;;;;;5011483;28;20514;-74
2021/07/07 10:33:33;;;;;;;6.22;1.80;;;;;;;;;;5022872;28;20193;-71
2021/07/07 10:36:14;;;;;;;8.63;1.70;;;;;;;;;;5011764;28;20191;-76
2021/07/07 10:38:40;;;;;;;4.75;1.50;;;;;;;;;;5019020;28;20274;-73
2021/07/07 10:41:05;;;;;;;7.78;1.80;;;;;;;;;;5015591;28;20689;-70
2021/07/07 10:43:45;;;;;;;6.05;1.52;;;;;;;;;;5002443;28;20190;-71
2021/07/07 10:46:11;;;;;;;4.85;1.77;;;;;;;;;;5006779;28;20213;-73
2021/07/07 10:48:37;;;;;;;5.55;1.95;;;;;;;;;;5032060;28;20641;-74
2021/07/07 10:51:11;;;;;;;11.57;2.20;;;;;;;;;;5032080;28;20186;-74
2021/07/07 10:53:37;;;;;;;7.00;2.22;;;;;;;;;;5040655;28;20195;-73
2021/07/07 10:56:04;;;;;;;8.25;1.80;;;;;;;;;;5037698;28;20292;-73
2021/07/07 10:58:36;;;;;;;7.53;1.90;;;;;;;;;;5041112;28;20194;-73
2021/07/07 11:01:03;;;;;;;8.20;1.70;;;;;;;;;;5033015;28;20210;-75
2021/07/07 11:03:37;;;;;;;5.00;1.60;;;;;;;;;;5039487;28;20624;-70
2021/07/07 11:06:24;;;;;;;5.63;1.67;;;;;;;;;;5035520;28;20192;-72
2021/07/07 11:08:56;;;;;;;8.60;2.17;;;;;;;;;;5041779;28;20184;-69
2021/07/07 11:11:25;;;;;;;6.63;2.28;;;;;;;;;;5035057;28;20283;-71
2021/07/07 11:13:52;;;;;;;6.00;1.73;;;;;;;;;;5045161;28;20173;-73
2021/07/07 11:16:22;;;;;;;9.15;1.70;;;;;;;;;;5045116;28;20200;-72
2021/07/07 11:18:48;;;;;;;6.65;1.70;;;;;;;;;;5039939;28;20281;-71
2021/07/07 11:21:14;;;;;;;8.38;2.05;;;;;;;;;;5044081;28;20265;-71
2021/07/07 11:23:40;;;;;;;4.80;1.52;;;;;;;;;;5029694;28;20287;-72
2021/07/07 11:26:07;;;;;;;9.05;2.08;;;;;;;;;;5041717;28;20194;-72
2021/07/07 11:28:32;;;;;;;9.25;2.25;;;;;;;;;;5036087;28;20714;-72
2021/07/07 11:30:58;;;;;;;9.05;2.25;;;;;;;;;;5046747;28;20189;-73
2021/07/07 11:33:24;;;;;;;5.25;2.13;;;;;;;;;;5032084;28;20380;-71
2021/07/07 11:35:50;;;;;;;6.88;2.17;;;;;;;;;;5044705;28;20280;-73
2021/07/07 11:38:27;;;;;;;10.25;2.60;;;;;;;;;;5034616;28;20779;-71
2021/07/07 11:40:55;;;;;;;6.50;2.13;;;;;;;;;;5042244;28;20204;-73
2021/07/07 11:43:29;;;;;;;7.25;2.00;;;;;;;;;;5032489;28;20193;-73
2021/07/07 11:45:59;;;;;;;6.60;1.77;;;;;;;;;;5046557;28;20220;-73
2021/07/07 11:48:47;;;;;;;7.20;2.15;;;;;;;;;;5021349;28;20242;-73
2021/07/07 11:51:17;;;;;;;5.72;1.90;;;;;;;;;;5021979;28;20280;-74
2021/07/07 11:53:51;;;;;;;5.60;2.10;;;;;;;;;;5015787;28;20771;-70
2021/07/07 11:56:21;;;;;;;5.32;1.60;;;;;;;;;;5019978;28;20198;-72
2021/07/07 11:58:50;;;;;;;6.82;2.05;;;;;;;;;;5016864;28;20661;-72
2021/07/07 12:01:21;;;;;;;6.90;2.10;;;;;;;;;;5021980;28;20293;-71
2021/07/07 12:03:56;;;;;;;6.65;1.85;;;;;;;;;;5017673;28;20244;-72
2021/07/07 12:06:30;;;;;;;4.82;1.67;;;;;;;;;;5023100;28;20742;-75
2021/07/07 12:08:56;;;;;;;7.47;1.85;;;;;;;;;;5026349;28;20225;-72
2021/07/07 12:11:23;;;;;;;6.75;1.98;;;;;;;;;;5014618;28;20249;-72
2021/07/07 12:13:50;;;;;;;6.40;1.63;;;;;;;;;;5024226;28;20224;-74
2021/07/07 12:16:34;;;;;;;7.85;2.00;;;;;;;;;;5007148;28;20638;-73
2021/07/07 12:19:05;;;;;;;4.88;1.90;;;;;;;;;;5024164;28;20190;-72
2021/07/07 12:21:33;;;;;;;6.65;1.65;;;;;;;;;;5010307;28;20186;-68
2021/07/07 12:24:01;;;;;;;10.63;1.90;;;;;;;;;;5022318;28;20225;-72
2021/07/07 12:26:29;;;;;;;6.55;1.67;;;;;;;;;;5009878;28;20199;-73
2021/07/07 12:28:58;;;;;;;6.63;2.20;;;;;;;;;;5022966;28;20197;-72
2021/07/07 12:31:27;;;;;;;6.07;1.92;;;;;;;;;;5015729;28;20241;-72
2021/07/07 12:33:53;;;;;;;8.73;2.00;;;;;;;;;;5021304;28;20193;-71
2021/07/07 12:36:32;;;;;;;10.48;2.28;;;;;;;;;;5014027;28;20719;-71
2021/07/07 12:39:00;;;;;;;12.07;2.28;;;;;;;;;;5021066;28;20185;-72
2021/07/07 12:41:37;;;;;;;7.70;2.15;;;;;;;;;;4998802;28;20669;-71
2021/07/07 12:44:12;;;;;;;6.20;2.13;;;;;;;;;;5021060;28;20213;-70
2021/07/07 12:46:58;;;;;;;9.52;2.00;;;;;;;;;;5016677;28;20300;-70
2021/07/07 12:49:41;;;;;;;8.30;2.13;;;;;;;;;;5021230;28;20555;-70
2021/07/07 12:52:25;;;;;;;6.15;2.08;;;;;;;;;;5014836;28;20613;-72
2021/07/07 12:55:20;;;;;;;7.78;2.13;;;;;;;;;;5016714;28;20262;-70
2021/07/07 12:58:11;;;;;;;7.15;2.08;;;;;;;;;;5011928;28;20561;-71
2021/07/07 13:00:44;;;;;;;8.55;2.28;;;;;;;;;;5024075;28;20210;-70
2021/07/07 13:03:15;;;;;;;10.77;2.40;;;;;;;;;;5013147;28;20591;-75
2021/07/07 13:05:55;;;;;;;7.47;2.30;;;;;;;;;;5006366;28;20505;-71
2021/07/07 13:08:42;;;;;;;8.27;2.17;;;;;;;;;;5008595;28;20217;-71
2021/07/07 13:11:19;;;;;;;6.28;2.00;;;;;;;;;;5019315;28;20171;-71
2021/07/07 13:13:45;;;;;;;8.68;2.22;;;;;;;;;;5009596;28;20182;-70
2021/07/07 13:16:23;;;;;;;11.10;2.25;;;;;;;;;;5004243;28;20213;-73
2021/07/07 13:18:55;;;;;;;4.07;1.60;;;;;;;;;;5010722;28;20610;-75
2021/07/07 13:21:47;;;;;;;5.03;1.88;;;;;;;;;;5019340;28;20198;-74
2021/07/07 13:24:21;;;;;;;6.68;2.17;;;;;;;;;;5013314;28;20182;-73
2021/07/07 13:26:53;;;;;;;6.38;1.73;;;;;;;;;;5019444;28;20198;-75
2021/07/07 13:29:20;;;;;;;7.57;1.80;;;;;;;;;;5009318;28;20196;-72
2021/07/07 13:31:57;;;;;;;23.52;2.75;;;;;;;;;;4999329;28;20220;-77
2021/07/07 13:34:23;;;;;;;5.47;2.05;;;;;;;;;;5012842;28;20194;-74
2021/07/07 13:36:48;;;;;;;5.80;1.77;;;;;;;;;;5022716;28;20527;-75
2021/07/07 13:39:14;;;;;;;8.63;1.80;;;;;;;;;;4989363;28;20192;-74
2021/07/07 13:41:40;;;;;;;3.70;1.70;;;;;;;;;;5005812;28;20181;-72
2021/07/07 13:44:05;;;;;;;5.70;2.10;;;;;;;;;;5008839;28;20268;-72
2021/07/07 13:46:32;;;;;;;8.07;2.00;;;;;;;;;;5001845;28;20536;-74
2021/07/07 13:48:58;;;;;;;5.15;1.73;;;;;;;;;;5025844;28;20724;-72
2021/07/07 13:51:23;;;;;;;7.80;2.05;;;;;;;;;;5010312;28;20300;-70
2021/07/07 13:53:48;;;;;;;6.45;1.58;;;;;;;;;;5021296;28;20281;-74
2021/07/07 13:56:14;;;;;;;7.82;1.90;;;;;;;;;;5010916;28;20217;-74
2021/07/07 13:58:40;;;;;;;9.85;2.30;;;;;;;;;;5007996;28;20649;-73
2021/07/07 14:01:05;;;;;;;3.35;1.63;;;;;;;;;;5007562;28;20207;-73
2021/07/07 14:03:30;;;;;;;5.63;1.60;;;;;;;;;;4998121;28;20621;-71
2021/07/07 14:05:57;;;;;;;4.82;1.80;;;;;;;;;;5014121;28;20187;-72
2021/07/07 14:08:22;;;;;;;5.25;1.70;;;;;;;;;;5018726;28;20189;-71
2021/07/07 14:10:49;;;;;;;4.25;1.60;;;;;;;;;;5007059;28;20185;-72
2021/07/07 14:13:14;;;;;;;5.57;1.77;;;;;;;;;;5007267;28;20253;-74
2021/07/07 14:15:40;;;;;;;4.03;1.45;;;;;;;;;;4998465;28;20646;-69
2021/07/07 14:18:06;;;;;;;3.65;1.55;;;;;;;;;;5014905;28;20193;-75
2021/07/07 14:20:31;;;;;;;4.40;1.88;;;;;;;;;;5018762;28;20213;-73
2021/07/07 14:22:58;;;;;;;2.63;1.40;;;;;;;;;;5011937;28;20221;-73
2021/07/07 14:25:23;;;;;;;7.82;1.40;;;;;;;;;;5019171;28;20273;-73
2021/07/07 14:27:49;;;;;;;3.22;1.48;;;;;;;;;;5010028;28;20733;-73
2021/07/07 14:30:14;;;;;;;4.63;1.30;;;;;;;;;;5015979;28;20569;-72
2021/07/07 14:32:39;;;;;;;4.07;1.55;;;;;;;;;;5009238;28;20293;-73
2021/07/07 14:35:15;;;;;;;5.51;1.33;;;;;;;;;;4634277;28;10002946;-72
2021/07/07 14:37:41;;;;;;;4.28;1.77;;;;;;;;;;4989003;28;20556;-71
2021/07/07 14:40:07;;;;;;;4.97;1.60;;;;;;;;;;5011911;28;20190;-72
2021/07/07 14:42:33;;;;;;;5.68;1.60;;;;;;;;;;5001361;28;20596;-71